Flight Track Log - Related Links

Times and Time Zones

All times are in EDT time to prevent confusion due to time zone crossing. See the JAL332 flight status page for this flight to view local times or setup timezone preferences in your user account.

Time Position Orientation Groundspeed Altitude Reporting Facility
EDT Latitude Longitude Course Direction KTS MPH feet Rate Location/Type
Wed 07:30:00 AM 33.6978 130.8909 73° East  Level Estimated
Wed 07:31:00 AM 33.7345 131.0381 73° East  Level Estimated
Wed 07:32:00 AM 33.7710 131.1853 73° East  Level Estimated
Wed 07:33:00 AM 33.8073 131.3328 73° East  Level Estimated
Wed 07:34:00 AM 33.8435 131.4803 74° East  Level Estimated
Wed 07:35:00 AM 33.8795 131.6279 74° East  Level Estimated
Wed 07:36:00 AM 33.9153 131.7757 74° East  Level Estimated
Wed 07:37:00 AM 33.9509 131.9236 74° East  Level Estimated
Wed 07:38:00 AM 33.9864 132.0717 74° East  Level Estimated
Wed 07:39:00 AM 34.0217 132.2198 74° East  Level Estimated
Wed 07:40:00 AM 34.0568 132.3681 74° East  Level Estimated
Wed 07:41:00 AM 34.0917 132.5165 74° East  Level Estimated
Wed 07:42:00 AM 34.1265 132.6650 74° East  Level Estimated
Wed 07:43:00 AM 34.1610 132.8137 74° East  Level Estimated
Wed 07:44:00 AM 34.1954 132.9624 74° East  Level Estimated
Wed 07:45:00 AM 34.2296 133.1113 74° East  Level Estimated
Wed 07:46:00 AM 34.2637 133.2603 75° East  Level Estimated
Wed 07:47:00 AM 34.2975 133.4095 75° East  Level Estimated
Wed 07:48:00 AM 34.3312 133.5587 75° East  Level Estimated
Wed 07:49:00 AM 34.3647 133.7081 75° East  Level Estimated
Wed 07:50:00 AM 34.3980 133.8576 75° East  Level Estimated
Wed 07:51:00 AM 34.4311 134.0072 75° East  Level Estimated
Wed 07:52:00 AM 34.4626 134.1500 75° East  Level Estimated
Wed 07:53:00 AM 34.4938 134.2929 75° East  Level Estimated
Wed 07:54:00 AM 34.5249 134.4359 75° East  Level Estimated
Wed 07:55:00 AM 34.5558 134.5790 75° East  Level Estimated
Wed 07:56:00 AM 34.5866 134.7223 75° East  Level Estimated
Wed 07:57:00 AM 34.6172 134.8656 75° East  Level Estimated
Wed 07:58:00 AM 34.6476 135.0091 76° East  Level Estimated
Wed 07:59:00 AM 34.6779 135.1526 76° East  Level Estimated
Wed 08:00:00 AM 34.7080 135.2963 76° East  Level Estimated
Wed 08:01:00 AM 34.7379 135.4400 76° East  Level Estimated
Wed 08:02:00 AM 34.7676 135.5839 76° East  Level Estimated
Wed 08:03:00 AM 34.7972 135.7279 76° East  Level Estimated
Wed 08:04:00 AM 34.8266 135.8719 76° East  Level Estimated
Wed 08:05:00 AM 34.8559 136.0161 76° East  Level Estimated
Wed 08:06:00 AM 34.8849 136.1604 76° East  Level Estimated
Wed 08:07:00 AM 34.9138 136.3048 76° East  Level Estimated
Wed 08:08:00 AM 34.9426 136.4493 76° East  Level Estimated
Wed 08:09:00 AM 34.9711 136.5938 76° East  Level Estimated
Wed 08:10:00 AM 34.9995 136.7385 76° East  Level Estimated
Wed 08:11:00 AM 35.0277 136.8833 77° East  Level Estimated
Wed 08:12:00 AM 35.0558 137.0282 77° East  Level Estimated
Wed 08:13:00 AM 35.0836 137.1732 77° East  Level Estimated
Wed 08:14:00 AM 35.1113 137.3182 77° East  Level Estimated
Wed 08:15:00 AM 35.1389 137.4634 77° East  Level Estimated
Wed 08:16:00 AM 35.1662 137.6087 77° East  Level Estimated
Wed 08:17:00 AM 35.1934 137.7541 77° East  Level Estimated
Wed 08:18:00 AM 35.2204 137.8995 77° East  Level Estimated
Wed 08:19:00 AM 35.2472 138.0451 77° East  Level Estimated
Wed 08:20:00 AM 35.2739 138.1908 77° East  Level Estimated
Wed 08:21:00 AM 35.3004 138.3365 77° East  Level Estimated
Wed 08:22:00 AM 35.3267 138.4824 77° East  Level Estimated
Wed 08:23:00 AM 35.3503 138.6141 78° East  Level Estimated
Wed 08:24:00 AM 35.3737 138.7460 78° East  Level Estimated
Wed 08:25:00 AM 35.3971 138.8779 78° East  Level Estimated
Wed 08:26:00 AM 35.4202 139.0099 78° East  Level Estimated
Wed 08:27:00 AM 35.4433 139.1419 78° East  Level Estimated
Wed 08:28:00 AM 35.4665 139.2759 78° East  Level Estimated
Wed 08:29:00 AM 35.4895 139.4100 78° East  Level Estimated
Wed 08:30:00 AM 35.5124 139.5441 78° East  Level Estimated
Wed 08:31:00 AM 35.5352 139.6784 78° East  Level Estimated
Wed 08:32:00 AM 35.5523 139.7797 78° East  Level Estimated
Wed 08:33:00 AM 35.5523 139.7797 122° Southeast  Level Estimated
Wed 08:34:00 AM 35.5523 139.7797 122° Southeast  Level Estimated
Wed 08:35:00 AM 35.5523 139.7797 122° Southeast  Level Estimated
Wed 08:36:00 AM 35.5523 139.7797 122° Southeast  Level Estimated
Wed 08:37:00 AM 35.5523 139.7797 122° Southeast  Level Estimated
Wed 08:38:00 AM 35.5523 139.7797 122° Southeast  Level Estimated
Wed 08:39:00 AM 35.5523 139.7797 122° Southeast  Level Estimated
Wed 08:40:00 AM 35.5523 139.7797 122° Southeast  Level Estimated
Wed 08:41:00 AM 35.5523 139.7797 122° Southeast  Level Estimated
Wed 08:42:00 AM 35.5523 139.7797 122° Southeast  Level Estimated
Wed 08:43:00 AM 35.5523 139.7797 122° Southeast  Level Estimated
Wed 08:44:00 AM 35.5523 139.7797 122° Southeast  Level Estimated
Wed 08:45:00 AM 35.5523 139.7797 122° Southeast  Level Estimated
Wed 08:46:00 AM 35.5523 139.7797 122° Southeast  Level Estimated
Wed 08:47:00 AM 35.5523 139.7797 122° Southeast  Level Estimated
Wed 08:48:00 AM 35.5523 139.7797 122° Southeast  Level Estimated
Wed 08:49:00 AM 35.5523 139.7797 122° Southeast  Level Estimated
Wed 08:50:00 AM 35.5523 139.7797 122° Southeast  Level Estimated
Wed 08:51:00 AM 35.5523 139.7797 122° Southeast  Level Estimated

Login

Don't have an account? Register now (free) for customized features, flight alerts, and more!